Time;durP1;ratioP1;P1;durP2;ratioP2;P2;SDS_P1;SDS_P2;PMS_P1;PMS_P2;Temp;Humidity;BMP_temperature;BMP_pressure;BME280_temperature;BME280_humidity;BME280_pressure;Samples;Min_cycle;Max_cycle;Signal;HPM_P1;HPM_P2
2021/11/07 00:01:51;;;;;;;38.40;14.90;;;;;;;3.57;73.40;100863.14;112686;1200;22445;-57
2021/11/07 00:04:31;;;;;;;34.80;12.10;;;;;;;3.56;73.44;100862.77;112778;1200;22440;-57
2021/11/07 00:07:16;;;;;;;33.80;14.30;;;;;;;3.53;73.37;100857.06;113005;1200;24176;-61
2021/11/07 00:09:57;;;;;;;32.90;10.30;;;;;;;3.52;73.40;100855.17;112702;1200;24064;-58
2021/11/07 00:12:31;;;;;;;28.70;10.20;;;;;;;3.46;73.56;100855.96;112690;1200;22427;-58
2021/11/07 00:15:02;;;;;;;27.00;10.20;;;;;;;3.43;73.64;100851.67;112746;1200;25111;-58
2021/11/07 00:17:34;;;;;;;30.30;10.30;;;;;;;3.43;73.65;100848.44;112735;1200;25166;-57
2021/11/07 00:20:12;;;;;;;32.80;11.00;;;;;;;3.42;73.59;100840.56;112826;1200;22902;-61
2021/11/07 00:22:50;;;;;;;27.90;10.60;;;;;;;3.40;73.53;100839.34;112639;1200;22822;-58
2021/11/07 00:25:26;;;;;;;33.00;11.30;;;;;;;3.37;73.60;100835.05;112702;1200;24140;-58
2021/11/07 00:28:00;;;;;;;34.30;13.10;;;;;;;3.34;73.60;100832.09;112655;1200;24084;-58
2021/11/07 00:30:40;;;;;;;31.60;12.80;;;;;;;3.30;73.71;100826.77;112736;1200;22439;-58
2021/11/07 00:33:20;;;;;;;27.80;10.20;;;;;;;3.27;73.94;100828.40;112671;1193;22909;-55
2021/11/07 00:36:16;;;;;;;26.60;9.40;;;;;;;3.28;74.14;100818.84;112832;1200;25056;-59
2021/11/07 00:38:52;;;;;;;29.30;9.60;;;;;;;3.27;74.23;100807.11;112724;1193;22813;-57
2021/11/07 00:41:30;;;;;;;24.90;9.60;;;;;;;3.26;74.38;100801.91;112796;1193;22441;-56
2021/11/07 00:44:04;;;;;;;23.70;8.40;;;;;;;3.26;74.56;100802.48;112619;1200;22439;-57
2021/11/07 00:46:41;;;;;;;24.60;9.10;;;;;;;3.27;74.66;100802.94;112717;1200;24076;-58
2021/11/07 00:49:16;;;;;;;28.40;9.40;;;;;;;3.28;74.72;100799.38;112929;1200;22437;-57
2021/11/07 00:51:58;;;;;;;24.10;8.10;;;;;;;3.29;74.79;100799.42;112775;1200;25130;-57
2021/11/07 00:54:37;;;;;;;24.30;8.20;;;;;;;3.31;74.89;100797.43;112690;1200;22445;-58
2021/11/07 00:57:17;;;;;;;28.90;9.00;;;;;;;3.32;74.92;100796.31;112684;1193;23109;-61
2021/11/07 00:59:54;;;;;;;28.20;8.90;;;;;;;3.33;74.94;100797.11;112707;1200;24211;-56
2021/11/07 01:02:30;;;;;;;27.40;10.20;;;;;;;3.35;74.88;100794.08;112764;1200;22436;-57
2021/11/07 01:05:02;;;;;;;25.20;9.50;;;;;;;3.37;74.98;100792.70;112842;1200;25338;-56
2021/11/07 01:07:32;;;;;;;25.00;9.50;;;;;;;3.39;74.94;100795.44;112684;1200;25062;-58
2021/11/07 01:10:03;;;;;;;23.80;8.30;;;;;;;3.40;75.01;100795.24;112677;1200;25078;-56
2021/11/07 01:12:35;;;;;;;25.90;8.00;;;;;;;3.40;74.96;100791.39;112803;1200;26304;-58
2021/11/07 01:15:08;;;;;;;22.90;7.50;;;;;;;3.40;74.90;100782.95;112798;1193;22420;-58
2021/11/07 01:17:40;;;;;;;30.60;10.60;;;;;;;3.40;74.88;100775.77;113061;1194;26351;-57
2021/11/07 01:20:13;;;;;;;26.30;9.70;;;;;;;3.40;74.91;100765.13;112895;1185;24075;-56
2021/11/07 01:22:50;;;;;;;28.50;9.40;;;;;;;3.40;75.15;100758.59;112792;1194;25121;-57
2021/11/07 01:25:22;;;;;;;25.30;8.00;;;;;;;3.40;75.13;100762.29;112713;1193;24293;-55
2021/11/07 01:27:55;;;;;;;27.50;9.30;;;;;;;3.41;75.01;100758.58;112733;1200;22443;-56
2021/11/07 01:30:28;;;;;;;27.10;9.90;;;;;;;3.41;75.08;100758.42;112666;1200;25176;-58
2021/11/07 01:33:03;;;;;;;26.30;9.80;;;;;;;3.41;75.15;100752.83;112617;1200;22442;-58
2021/11/07 01:35:40;;;;;;;25.40;8.80;;;;;;;3.41;75.06;100749.90;112717;1193;24091;-57
2021/11/07 01:38:14;;;;;;;26.30;9.10;;;;;;;3.40;75.13;100744.95;112693;1200;22992;-57
2021/11/07 01:40:56;;;;;;;28.60;10.50;;;;;;;3.37;75.13;100738.61;112691;1200;24093;-55
2021/11/07 01:43:27;;;;;;;25.30;8.90;;;;;;;3.38;75.27;100737.10;112685;1200;22584;-57
2021/11/07 01:46:05;;;;;;;24.90;9.50;;;;;;;3.38;75.23;100736.38;112647;1200;22445;-58
2021/11/07 01:48:44;;;;;;;24.00;8.90;;;;;;;3.40;75.42;100733.35;112714;1200;22484;-58
2021/11/07 01:51:15;;;;;;;22.50;8.00;;;;;;;3.41;75.36;100732.41;112706;1198;22483;-58
2021/11/07 01:53:47;;;;;;;23.70;7.60;;;;;;;3.40;75.44;100738.23;112698;1193;24085;-58
2021/11/07 01:56:18;;;;;;;21.40;7.00;;;;;;;3.40;75.50;100730.98;112681;1186;24065;-58
2021/11/07 01:58:51;;;;;;;19.40;6.30;;;;;;;3.40;75.67;100722.15;112721;1200;24901;-57
2021/11/07 02:01:26;;;;;;;26.00;7.70;;;;;;;3.42;75.70;100715.19;112839;1200;22453;-58
2021/11/07 02:03:59;;;;;;;24.40;8.20;;;;;;;3.43;75.77;100707.52;112767;1200;22435;-58
2021/11/07 02:06:30;;;;;;;22.50;7.40;;;;;;;3.46;75.71;100694.07;112740;1200;22424;-55
2021/11/07 02:09:01;;;;;;;27.40;7.40;;;;;;;3.46;75.63;100688.86;112667;1200;22428;-57
2021/11/07 02:11:32;;;;;;;23.60;7.00;;;;;;;3.47;75.68;100679.07;112681;1200;22445;-57
2021/11/07 02:14:03;;;;;;;20.30;7.00;;;;;;;3.47;75.72;100673.61;112869;1200;25119;-57
2021/11/07 02:16:34;;;;;;;24.60;7.40;;;;;;;3.49;75.74;100666.57;112708;1200;25311;-58
2021/11/07 02:19:05;;;;;;;24.30;7.20;;;;;;;3.49;75.73;100659.95;112747;1200;22509;-58
2021/11/07 02:21:36;;;;;;;22.80;6.60;;;;;;;3.50;75.79;100649.45;112696;1200;24091;-58
2021/11/07 02:24:08;;;;;;;20.70;6.00;;;;;;;3.51;75.77;100646.66;112769;1200;22438;-56
2021/11/07 02:26:44;;;;;;;21.20;6.10;;;;;;;3.52;75.80;100645.55;112845;1200;25112;-58
2021/11/07 02:29:15;;;;;;;24.80;6.90;;;;;;;3.51;75.73;100644.06;112848;1200;24105;-58
2021/11/07 02:31:46;;;;;;;21.30;6.90;;;;;;;3.50;75.80;100634.91;112775;1200;24189;-58
2021/11/07 02:34:17;;;;;;;26.50;7.20;;;;;;;3.51;75.90;100627.11;112844;1200;23512;-57
2021/11/07 02:36:48;;;;;;;28.70;7.40;;;;;;;3.50;75.82;100628.23;112747;1200;22452;-57
2021/11/07 02:39:20;;;;;;;24.50;7.20;;;;;;;3.50;75.74;100634.06;112847;1200;22444;-57
2021/11/07 02:41:51;;;;;;;22.70;7.40;;;;;;;3.50;75.69;100635.23;112687;1200;22939;-58
2021/11/07 02:44:33;;;;;;;22.10;6.00;;;;;;;3.51;75.75;100626.56;112712;1200;24167;-57
2021/11/07 02:47:09;;;;;;;22.60;7.40;;;;;;;3.51;75.76;100619.92;112716;1200;22443;-57
2021/11/07 02:49:41;;;;;;;23.30;6.60;;;;;;;3.53;75.75;100613.19;112809;1200;24118;-57
2021/11/07 02:52:14;;;;;;;23.30;7.40;;;;;;;3.53;75.74;100602.70;112755;1200;25681;-58
2021/11/07 02:54:45;;;;;;;24.50;7.60;;;;;;;3.53;75.77;100599.16;112915;1193;22422;-60
2021/11/07 02:57:21;;;;;;;21.80;6.90;;;;;;;3.53;75.78;100603.10;112847;1200;22442;-58
2021/11/07 02:59:57;;;;;;;26.60;7.50;;;;;;;3.53;75.77;100608.93;112912;1200;25331;-57
2021/11/07 03:02:29;;;;;;;18.40;6.00;;;;;;;3.54;75.64;100608.27;112740;1193;22441;-59
2021/11/07 03:05:00;;;;;;;21.20;7.10;;;;;;;3.52;75.64;100595.54;112866;1200;22748;-58
2021/11/07 03:07:30;;;;;;;24.10;8.40;;;;;;;3.51;75.54;100587.27;113006;1193;22437;-58
2021/11/07 03:10:01;;;;;;;26.50;8.50;;;;;;;3.49;75.61;100586.59;113065;1188;24932;-58
2021/11/07 03:12:32;;;;;;;22.90;8.30;;;;;;;3.47;75.65;100588.13;112912;1200;25146;-59
2021/11/07 03:15:06;;;;;;;22.30;6.90;;;;;;;3.45;75.72;100580.92;112669;1200;22418;-60
2021/11/07 03:17:38;;;;;;;20.90;6.70;;;;;;;3.43;75.73;100575.91;113037;1200;22559;-60
2021/11/07 03:20:11;;;;;;;22.90;7.10;;;;;;;3.40;75.79;100569.11;112679;1200;25112;-59
2021/11/07 03:22:43;;;;;;;24.60;7.90;;;;;;;3.39;75.71;100564.86;112762;1200;22469;-58
2021/11/07 03:25:14;;;;;;;27.10;9.00;;;;;;;3.35;75.77;100562.98;112702;1200;22428;-58
2021/11/07 03:27:46;;;;;;;21.30;7.00;;;;;;;3.32;75.80;100559.55;112791;1200;22472;-58
2021/11/07 03:30:27;;;;;;;22.90;7.50;;;;;;;3.31;75.76;100559.11;112684;1200;22418;-60
2021/11/07 03:33:09;;;;;;;20.90;6.60;;;;;;;3.28;75.85;100561.11;112813;1200;22441;-58
2021/11/07 03:35:42;;;;;;;23.60;6.70;;;;;;;3.27;75.91;100546.95;112697;1200;22476;-59
2021/11/07 03:38:13;;;;;;;22.90;7.10;;;;;;;3.27;75.82;100543.57;112834;1200;22695;-61
2021/11/07 03:40:44;;;;;;;23.30;6.60;;;;;;;3.26;75.82;100531.29;112803;1200;22546;-57
2021/11/07 03:43:16;;;;;;;20.70;6.80;;;;;;;3.24;75.80;100523.73;112725;1200;22496;-57
2021/11/07 03:45:47;;;;;;;23.70;6.40;;;;;;;3.23;75.88;100523.05;112730;1200;22742;-59
2021/11/07 03:48:22;;;;;;;19.00;7.00;;;;;;;3.21;75.97;100526.17;112730;1200;25213;-57
2021/11/07 03:50:54;;;;;;;24.90;7.50;;;;;;;3.19;76.09;100520.76;112774;1200;24130;-58
2021/11/07 03:53:25;;;;;;;18.80;6.50;;;;;;;3.19;76.15;100531.09;112702;1194;24064;-58
2021/11/07 03:55:56;;;;;;;24.80;6.70;;;;;;;3.18;76.18;100540.98;112685;1200;22446;-57
2021/11/07 03:58:26;;;;;;;26.40;7.30;;;;;;;3.17;76.18;100547.29;112796;1200;22466;-56
2021/11/07 04:00:59;;;;;;;19.40;6.10;;;;;;;3.16;76.29;100538.79;112658;1194;22559;-59
2021/11/07 04:03:30;;;;;;;20.40;7.60;;;;;;;3.17;76.37;100533.49;113093;1195;22489;-59
2021/11/07 04:06:01;;;;;;;21.80;6.90;;;;;;;3.18;76.40;100526.86;112679;1193;22424;-59
2021/11/07 04:08:32;;;;;;;22.00;7.20;;;;;;;3.18;76.36;100521.50;113079;1193;24067;-59
2021/11/07 04:11:03;;;;;;;24.50;7.30;;;;;;;3.18;76.32;100500.30;112893;1200;22451;-55
2021/11/07 04:13:37;;;;;;;22.00;7.90;;;;;;;3.16;76.36;100487.09;112769;1200;25293;-57
2021/11/07 04:16:10;;;;;;;21.60;6.90;;;;;;;3.16;76.43;100479.52;112719;1193;22464;-57
2021/11/07 04:18:43;;;;;;;21.30;7.40;;;;;;;3.17;76.60;100473.44;112771;1200;22442;-57
2021/11/07 04:21:14;;;;;;;26.90;7.90;;;;;;;3.17;76.72;100475.96;112853;1200;22507;-57
2021/11/07 04:23:45;;;;;;;21.90;7.20;;;;;;;3.19;76.74;100474.73;112702;1200;22475;-55
2021/11/07 04:26:16;;;;;;;23.00;7.40;;;;;;;3.22;76.76;100467.03;112684;1193;24042;-58
2021/11/07 04:28:47;;;;;;;25.00;7.50;;;;;;;3.25;76.91;100467.61;112839;1198;22480;-57
2021/11/07 04:31:18;;;;;;;20.70;6.20;;;;;;;3.28;76.91;100464.08;112727;1200;22441;-55
2021/11/07 04:33:49;;;;;;;17.80;5.80;;;;;;;3.33;77.01;100467.29;112684;1200;25763;-59
2021/11/07 04:36:20;;;;;;;18.80;6.20;;;;;;;3.38;77.01;100454.80;112716;1200;25179;-57
2021/11/07 04:38:51;;;;;;;21.80;6.40;;;;;;;3.43;77.04;100447.69;112730;1192;24173;-59
2021/11/07 04:41:23;;;;;;;18.90;6.20;;;;;;;3.47;76.92;100448.10;112792;1200;25389;-58
2021/11/07 04:43:54;;;;;;;19.80;6.20;;;;;;;3.50;76.99;100447.86;112789;1200;24374;-56
2021/11/07 04:46:25;;;;;;;19.10;5.50;;;;;;;3.55;77.04;100445.48;112707;1200;22427;-59
2021/11/07 04:48:56;;;;;;;20.70;7.40;;;;;;;3.59;77.06;100434.42;112720;1195;24178;-57
2021/11/07 04:51:27;;;;;;;19.40;6.30;;;;;;;3.62;76.95;100429.61;112690;1200;25153;-59
2021/11/07 04:53:58;;;;;;;21.00;6.60;;;;;;;3.65;76.96;100426.95;112708;1200;22991;-58
2021/11/07 04:56:28;;;;;;;21.00;6.60;;;;;;;3.69;76.95;100433.73;112737;1200;24126;-58
2021/11/07 04:59:00;;;;;;;23.00;7.60;;;;;;;3.72;77.01;100439.83;112675;1195;25332;-58
2021/11/07 05:01:31;;;;;;;23.30;7.80;;;;;;;3.75;76.97;100441.27;112731;1194;25373;-55
2021/11/07 05:04:03;;;;;;;18.10;5.50;;;;;;;3.78;76.96;100442.38;112670;1194;24056;-54
2021/11/07 05:06:33;;;;;;;20.60;6.30;;;;;;;3.81;76.95;100438.77;112770;1200;24162;-59
2021/11/07 05:09:05;;;;;;;22.50;6.90;;;;;;;3.85;76.91;100429.66;112702;1200;24088;-58
2021/11/07 05:11:36;;;;;;;23.80;7.60;;;;;;;3.88;76.94;100426.05;112840;1193;24164;-61
2021/11/07 05:14:07;;;;;;;20.60;6.90;;;;;;;3.91;76.91;100413.66;112670;1200;22455;-59
2021/11/07 05:16:38;;;;;;;20.30;7.10;;;;;;;3.93;76.86;100406.98;112861;1200;22422;-59
2021/11/07 05:19:08;;;;;;;17.40;6.10;;;;;;;3.95;76.85;100412.30;112749;1200;24055;-58
2021/11/07 05:21:40;;;;;;;17.90;5.60;;;;;;;3.98;76.76;100409.32;112675;1200;24105;-58
2021/11/07 05:24:12;;;;;;;20.60;5.80;;;;;;;4.00;76.77;100408.09;112708;1200;24332;-59
2021/11/07 05:26:43;;;;;;;17.20;5.00;;;;;;;4.02;76.71;100407.02;112685;1200;22439;-57
2021/11/07 05:29:14;;;;;;;18.80;5.90;;;;;;;4.03;76.68;100401.14;112973;1200;24897;-59
2021/11/07 05:31:45;;;;;;;18.70;5.70;;;;;;;4.05;76.69;100394.95;112759;1200;22432;-58
2021/11/07 05:34:16;;;;;;;16.10;5.30;;;;;;;4.06;76.58;100384.42;112750;1200;25027;-56
2021/11/07 05:36:46;;;;;;;15.30;5.10;;;;;;;4.06;76.52;100369.90;112739;1200;22438;-59
2021/11/07 05:39:18;;;;;;;16.30;5.30;;;;;;;4.07;76.58;100361.13;112685;1195;22463;-58
2021/11/07 05:41:49;;;;;;;17.10;5.00;;;;;;;4.07;76.65;100358.19;112832;1193;23261;-58
2021/11/07 05:44:20;;;;;;;20.90;6.70;;;;;;;4.08;76.59;100357.06;112733;1200;22483;-57
2021/11/07 05:46:51;;;;;;;20.00;7.00;;;;;;;4.09;76.58;100350.41;112729;1200;25131;-59
2021/11/07 05:49:21;;;;;;;19.90;6.70;;;;;;;4.09;76.67;100339.59;112668;1200;24095;-58
2021/11/07 05:51:53;;;;;;;20.40;6.90;;;;;;;4.10;76.79;100341.38;112712;1200;22991;-58
2021/11/07 05:54:25;;;;;;;21.30;6.40;;;;;;;4.13;76.84;100342.27;112942;1200;25164;-60
2021/11/07 05:56:58;;;;;;;21.80;6.20;;;;;;;4.15;76.89;100337.17;112747;1200;24215;-60
2021/11/07 05:59:29;;;;;;;17.70;6.30;;;;;;;4.18;76.90;100329.52;112733;1200;24085;-56
2021/11/07 06:02:00;;;;;;;22.30;7.10;;;;;;;4.22;76.95;100323.10;112796;1200;22444;-58
2021/11/07 06:04:31;;;;;;;19.30;6.60;;;;;;;4.26;76.96;100319.60;112930;1200;24073;-61
2021/11/07 06:07:02;;;;;;;21.60;7.10;;;;;;;4.32;76.85;100333.81;113126;1200;24961;-55
2021/11/07 06:09:33;;;;;;;18.10;5.90;;;;;;;4.37;76.75;100344.98;112789;1200;22440;-55
2021/11/07 06:12:05;;;;;;;19.20;6.60;;;;;;;4.42;76.75;100337.42;112768;1200;23006;-57
2021/11/07 06:14:36;;;;;;;20.80;6.20;;;;;;;4.46;76.73;100323.73;112801;1200;22430;-59
2021/11/07 06:17:08;;;;;;;18.90;6.60;;;;;;;4.49;76.69;100313.47;112740;1200;24180;-59
2021/11/07 06:19:39;;;;;;;18.80;7.10;;;;;;;4.51;76.71;100315.77;112710;1200;22418;-56
2021/11/07 06:22:11;;;;;;;20.30;6.20;;;;;;;4.54;76.66;100308.33;112739;1200;24063;-59
2021/11/07 06:24:42;;;;;;;17.20;4.40;;;;;;;4.58;76.72;100303.96;112781;1200;22502;-60
2021/11/07 06:27:13;;;;;;;20.20;6.90;;;;;;;4.62;76.61;100304.02;112688;1200;22444;-58
2021/11/07 06:29:45;;;;;;;17.70;6.40;;;;;;;4.66;76.60;100304.07;112706;1200;25131;-59
2021/11/07 06:32:16;;;;;;;21.00;6.30;;;;;;;4.70;76.44;100310.83;112880;1200;22579;-60
2021/11/07 06:34:48;;;;;;;18.20;5.90;;;;;;;4.74;76.57;100314.17;112720;1200;22452;-57
2021/11/07 06:37:19;;;;;;;16.70;5.90;;;;;;;4.78;76.49;100318.65;112655;1200;22458;-60
2021/11/07 06:39:50;;;;;;;18.90;6.00;;;;;;;4.82;76.53;100319.88;112678;1193;23566;-59
2021/11/07 06:42:22;;;;;;;18.50;5.60;;;;;;;4.87;76.45;100315.64;112714;1200;22588;-58
2021/11/07 06:44:53;;;;;;;14.80;5.30;;;;;;;4.90;76.40;100310.86;112812;1200;22429;-57
2021/11/07 06:47:25;;;;;;;19.40;7.20;;;;;;;4.95;76.41;100307.83;112689;1200;22664;-58
2021/11/07 06:49:56;;;;;;;20.70;6.40;;;;;;;4.98;76.31;100301.41;112830;1200;24056;-58
2021/11/07 06:52:28;;;;;;;19.60;6.40;;;;;;;5.01;76.32;100294.93;112668;1193;24731;-59
2021/11/07 06:55:00;;;;;;;23.10;7.70;;;;;;;5.02;76.22;100296.08;112665;1200;22441;-57
2021/11/07 06:57:31;;;;;;;18.20;7.00;;;;;;;5.01;76.18;100303.91;112818;1200;22441;-59
2021/11/07 07:00:07;;;;;;;17.40;6.40;;;;;;;5.02;75.99;100303.89;112821;1200;22434;-57
2021/11/07 07:02:39;;;;;;;17.90;5.80;;;;;;;5.04;76.04;100300.22;113032;1200;26352;-55
2021/11/07 07:05:11;;;;;;;14.30;4.20;;;;;;;5.06;75.99;100297.46;112862;1200;22437;-58
2021/11/07 07:07:45;;;;;;;20.10;6.30;;;;;;;5.08;76.01;100301.67;112924;1200;22444;-61
2021/11/07 07:10:22;;;;;;;21.30;7.00;;;;;;;5.09;75.94;100294.59;112813;1200;26291;-57
2021/11/07 07:13:00;;;;;;;18.00;6.10;;;;;;;5.13;76.10;100295.13;112703;1200;22477;-57
2021/11/07 07:15:35;;;;;;;19.30;5.80;;;;;;;5.15;76.08;100291.50;112655;1200;25023;-58
2021/11/07 07:18:16;;;;;;;17.90;5.20;;;;;;;5.17;76.05;100297.61;112950;1200;24091;-56
2021/11/07 07:20:56;;;;;;;19.90;7.30;;;;;;;5.20;76.00;100296.09;112885;1197;25067;-58
2021/11/07 07:23:52;;;;;;;20.90;6.90;;;;;;;5.23;76.06;100294.80;112906;1200;25071;-60
2021/11/07 07:29:31;;;;;;;16.90;5.40;;;;;;;5.34;75.98;100287.05;112720;1200;22476;-58
2021/11/07 07:32:25;;;;;;;17.70;6.40;;;;;;;5.38;76.00;100278.20;112778;1200;22657;-58
2021/11/07 07:34:59;;;;;;;17.60;6.10;;;;;;;5.44;75.98;100265.52;112734;1200;22442;-58
2021/11/07 07:37:30;;;;;;;20.60;6.90;;;;;;;5.49;75.95;100257.27;112920;1200;22451;-58
2021/11/07 07:40:01;;;;;;;19.70;6.80;;;;;;;5.54;75.90;100249.94;113186;1200;22462;-58
2021/11/07 07:42:32;;;;;;;19.50;6.50;;;;;;;5.56;75.68;100237.05;112977;1193;23408;-59
2021/11/07 07:45:06;;;;;;;18.60;6.60;;;;;;;5.57;75.59;100221.48;112705;1200;22428;-58
2021/11/07 07:47:38;;;;;;;19.50;6.50;;;;;;;5.60;75.31;100226.08;112849;1200;26304;-58
2021/11/07 07:50:11;;;;;;;18.30;6.70;;;;;;;5.62;75.27;100208.69;112752;1200;22420;-56
2021/11/07 07:52:43;;;;;;;20.40;7.50;;;;;;;5.64;75.18;100197.68;112763;1200;22450;-59
2021/11/07 07:55:16;;;;;;;18.80;6.10;;;;;;;5.68;75.31;100193.11;112852;1200;22429;-59
2021/11/07 07:57:49;;;;;;;20.50;7.00;;;;;;;5.75;75.15;100193.69;112803;1193;26158;-58
2021/11/07 08:00:22;;;;;;;16.80;5.90;;;;;;;5.83;75.02;100187.03;112791;1200;22424;-57
2021/11/07 08:02:53;;;;;;;19.20;5.90;;;;;;;5.92;74.71;100181.66;112727;1178;25375;-61
2021/11/07 08:05:25;;;;;;;17.20;5.10;;;;;;;6.02;74.65;100169.91;112852;1199;22444;-59
2021/11/07 08:07:56;;;;;;;16.50;5.70;;;;;;;6.11;74.68;100177.04;113100;1200;22551;-58
2021/11/07 08:10:27;;;;;;;15.50;5.10;;;;;;;6.21;74.39;100179.83;112621;1200;22581;-57
2021/11/07 08:12:58;;;;;;;15.70;5.60;;;;;;;6.34;74.38;100172.48;112722;1200;25069;-57
2021/11/07 08:15:29;;;;;;;17.40;6.70;;;;;;;6.47;74.02;100176.02;112879;1200;24091;-59
2021/11/07 08:18:00;;;;;;;17.60;5.80;;;;;;;6.59;73.98;100174.05;112814;1193;22438;-59
2021/11/07 08:20:31;;;;;;;15.90;4.90;;;;;;;6.72;73.68;100167.23;112679;1200;22493;-62
2021/11/07 08:23:03;;;;;;;14.20;4.30;;;;;;;6.84;73.48;100167.89;112868;1200;22469;-61
2021/11/07 08:25:34;;;;;;;14.50;5.10;;;;;;;6.97;73.36;100165.78;112957;1200;22424;-59
2021/11/07 08:28:06;;;;;;;13.20;4.70;;;;;;;7.10;73.23;100161.02;112733;1200;22423;-60
2021/11/07 08:30:41;;;;;;;13.50;4.20;;;;;;;7.23;73.01;100157.73;112767;1200;22436;-58
2021/11/07 08:33:13;;;;;;;11.60;3.40;;;;;;;7.38;72.83;100146.27;112752;1200;24169;-59
2021/11/07 08:35:46;;;;;;;15.70;4.10;;;;;;;7.50;72.72;100149.51;112931;1193;24061;-57
2021/11/07 08:38:20;;;;;;;13.10;3.30;;;;;;;7.62;71.92;100150.11;113246;1200;24095;-60
2021/11/07 08:40:55;;;;;;;14.60;4.00;;;;;;;7.70;71.21;100150.55;112963;1200;22420;-59
2021/11/07 09:00:27;;;;;;;14.20;3.60;;;;;;;7.85;69.78;100144.11;113074;1200;25033;-58
2021/11/07 09:03:15;;;;;;;13.40;4.10;;;;;;;7.85;69.53;100132.10;112820;1200;25156;-58
2021/11/07 09:05:56;;;;;;;12.10;3.60;;;;;;;7.86;69.18;100135.87;112740;1200;22441;-61
2021/11/07 09:08:29;;;;;;;12.00;3.40;;;;;;;7.87;68.70;100140.20;112777;1177;24035;-57
2021/11/07 09:11:02;;;;;;;12.40;3.70;;;;;;;7.88;68.82;100139.20;112750;1200;22445;-59
2021/11/07 09:13:34;;;;;;;10.70;3.00;;;;;;;7.90;68.62;100144.30;112811;1200;22425;-60
2021/11/07 09:16:11;;;;;;;10.20;3.30;;;;;;;7.91;68.82;100143.98;112848;1200;22461;-60
2021/11/07 09:18:43;;;;;;;11.50;3.00;;;;;;;7.93;68.63;100138.27;112781;1200;22472;-58
2021/11/07 09:21:22;;;;;;;10.00;3.20;;;;;;;7.94;68.48;100132.29;112857;1200;26403;-58
2021/11/07 09:23:56;;;;;;;13.20;3.70;;;;;;;7.93;68.14;100122.09;112909;1200;24312;-58
2021/11/07 09:26:34;;;;;;;13.00;3.60;;;;;;;7.91;68.45;100109.98;112819;1200;22491;-58
2021/11/07 09:29:08;;;;;;;11.40;3.00;;;;;;;7.90;68.24;100110.60;113208;1193;24152;-60
2021/11/07 09:31:47;;;;;;;11.30;2.70;;;;;;;7.89;68.46;100106.04;112855;1200;22445;-58
2021/11/07 09:34:24;;;;;;;11.70;2.90;;;;;;;7.90;68.27;100100.40;112762;1200;22406;-61
2021/11/07 09:37:02;;;;;;;12.10;3.60;;;;;;;7.90;68.39;100097.33;112846;1196;23099;-58
2021/11/07 09:39:37;;;;;;;10.90;3.70;;;;;;;7.91;68.27;100105.01;112849;1200;28233;-58
2021/11/07 09:45:08;;;;;;;11.50;3.80;;;;;;;7.94;67.92;100096.00;112686;1200;24071;-59
2021/11/07 09:47:44;;;;;;;11.40;3.80;;;;;;;7.94;68.04;100087.63;112891;1200;22498;-61
2021/11/07 09:50:16;;;;;;;12.20;3.60;;;;;;;7.95;67.66;100075.91;112743;1200;25274;-58
2021/11/07 09:52:50;;;;;;;13.60;4.60;;;;;;;7.96;67.45;100076.92;112893;1193;24124;-59
2021/11/07 09:55:24;;;;;;;14.50;4.50;;;;;;;7.97;67.83;100071.38;112902;1185;22450;-60
2021/11/07 09:57:57;;;;;;;14.00;4.50;;;;;;;7.98;67.51;100069.73;112895;1200;23000;-61
2021/11/07 10:00:31;;;;;;;12.60;3.50;;;;;;;7.99;67.45;100072.95;112934;1200;25146;-58
2021/11/07 10:03:03;;;;;;;11.10;3.10;;;;;;;8.00;67.42;100075.21;112733;1193;22440;-59
2021/11/07 10:05:39;;;;;;;11.10;3.70;;;;;;;8.00;67.36;100069.83;112774;1200;22451;-60
2021/11/07 10:08:12;;;;;;;10.50;3.00;;;;;;;8.00;67.03;100072.27;112850;1193;24056;-61
2021/11/07 10:10:48;;;;;;;11.60;3.70;;;;;;;7.98;67.04;100075.60;112807;1200;24120;-58
2021/11/07 10:13:23;;;;;;;9.40;2.60;;;;;;;7.98;67.07;100078.82;112873;1200;25048;-60
2021/11/07 10:16:03;;;;;;;10.90;3.10;;;;;;;7.96;66.81;100068.08;112791;1200;26042;-59
2021/11/07 10:18:40;;;;;;;11.00;3.30;;;;;;;7.96;67.07;100064.46;112725;1200;22448;-58
2021/11/07 10:21:23;;;;;;;12.80;3.70;;;;;;;7.95;67.04;100051.20;112733;1200;26362;-60
2021/11/07 10:24:09;;;;;;;14.00;3.50;;;;;;;7.96;67.06;100046.00;112819;1200;23127;-59
2021/11/07 10:26:43;;;;;;;15.40;3.50;;;;;;;7.98;66.90;100051.41;112861;1193;25323;-58
2021/11/07 10:29:25;;;;;;;11.20;3.70;;;;;;;7.99;66.81;100051.61;112771;1200;25385;-58
2021/11/07 10:32:02;;;;;;;16.10;4.30;;;;;;;7.99;66.65;100043.89;112850;1200;25069;-59
2021/11/07 10:40:25;;;;;;;13.60;4.10;;;;;;;8.00;66.42;100036.64;112692;1200;22423;-57
2021/11/07 10:43:15;;;;;;;14.00;5.00;;;;;;;8.00;66.69;100040.67;112630;1200;22546;-60
2021/11/07 10:54:21;;;;;;;12.20;3.80;;;;;;;7.99;67.38;100036.40;112244;1204;22448;-60
2021/11/07 10:57:20;;;;;;;13.40;4.20;;;;;;;7.98;67.14;100033.61;112429;1204;22481;-60
2021/11/07 11:00:17;;;;;;;15.70;4.20;;;;;;;7.98;67.14;100024.09;112481;1204;22637;-58
2021/11/07 11:02:50;;;;;;;13.00;3.90;;;;;;;8.01;67.11;100021.64;112514;1189;22612;-59
2021/11/07 11:05:26;;;;;;;17.40;4.50;;;;;;;8.06;67.22;100022.98;112500;1204;22458;-59
2021/11/07 11:08:11;;;;;;;12.90;4.30;;;;;;;8.13;67.49;100028.88;112663;1205;22549;-59
2021/11/07 11:10:55;;;;;;;14.00;4.30;;;;;;;8.19;67.47;100022.77;112702;1204;22726;-59
2021/11/07 11:13:34;;;;;;;14.50;4.50;;;;;;;8.26;67.13;100021.63;112412;1204;24068;-58
2021/11/07 11:16:28;;;;;;;11.20;3.50;;;;;;;8.31;66.96;100012.73;112430;1204;22553;-58
2021/11/07 11:22:04;;;;;;;12.40;4.00;;;;;;;8.40;66.56;100005.85;112535;1197;24929;-57
2021/11/07 11:24:46;;;;;;;14.30;4.70;;;;;;;8.44;66.37;100004.84;112558;1204;24010;-58
2021/11/07 11:27:32;;;;;;;13.90;4.50;;;;;;;8.48;66.28;100007.61;112668;1200;24096;-58
2021/11/07 11:32:55;;;;;;;13.20;4.40;;;;;;;8.57;66.36;99998.91;112820;1193;25022;-57
2021/11/07 11:35:31;;;;;;;12.70;4.20;;;;;;;8.61;66.12;99996.73;112806;1193;24056;-58
2021/11/07 11:38:09;;;;;;;13.80;4.50;;;;;;;8.64;66.24;99996.25;112908;1200;24047;-58
2021/11/07 11:40:51;;;;;;;12.60;4.10;;;;;;;8.68;66.24;99994.46;112736;1200;22412;-60
2021/11/07 11:43:31;;;;;;;12.40;4.00;;;;;;;8.72;66.28;99983.13;112756;1200;22448;-58
2021/11/07 11:46:14;;;;;;;14.20;4.20;;;;;;;8.75;66.20;99976.71;112818;1200;24375;-57
2021/11/07 11:51:54;;;;;;;16.40;4.90;;;;;;;8.74;65.96;99975.48;113005;1200;25146;-61
2021/11/07 11:54:51;;;;;;;15.10;4.70;;;;;;;8.72;65.83;99968.65;112714;1200;22448;-60
2021/11/07 11:57:41;;;;;;;14.70;4.30;;;;;;;8.69;65.74;99960.88;112744;1200;22462;-60
2021/11/07 12:00:35;;;;;;;14.00;4.70;;;;;;;8.68;66.21;99959.70;112666;1200;24056;-58
2021/11/07 12:03:14;;;;;;;15.00;4.50;;;;;;;8.68;66.13;99953.38;113095;1200;22439;-61
2021/11/07 12:05:51;;;;;;;15.30;5.10;;;;;;;8.67;66.05;99947.84;112585;1193;24094;-61
2021/11/07 12:08:35;;;;;;;14.00;4.70;;;;;;;8.66;66.06;99949.25;112539;1200;25135;-57
2021/11/07 12:11:28;;;;;;;13.80;4.40;;;;;;;8.66;66.21;99946.71;113054;1200;22445;-62
2021/11/07 12:14:13;;;;;;;16.60;4.40;;;;;;;8.65;66.21;99946.89;112839;1200;25146;-61
2021/11/07 12:16:57;;;;;;;11.10;4.00;;;;;;;8.65;66.00;99944.20;113018;1200;24118;-60
2021/11/07 12:19:40;;;;;;;12.50;3.80;;;;;;;8.64;66.14;99939.48;113032;1193;24134;-58
2021/11/07 12:22:16;;;;;;;13.10;3.30;;;;;;;8.65;66.31;99935.05;112690;1193;25029;-60
2021/11/07 12:25:13;;;;;;;16.00;5.20;;;;;;;8.66;66.38;99934.93;112882;1193;22454;-60
2021/11/07 12:27:52;;;;;;;14.80;4.20;;;;;;;8.68;66.56;99935.62;113008;1193;25362;-63
2021/11/07 12:30:28;;;;;;;14.20;4.90;;;;;;;8.69;66.60;99931.09;111297;1200;24216;-63
2021/11/07 12:33:14;;;;;;;13.70;5.00;;;;;;;8.69;66.55;99925.63;112653;1186;25465;-62
2021/11/07 12:35:53;;;;;;;15.60;4.60;;;;;;;8.69;66.58;99928.77;112715;1201;24185;-62
2021/11/07 12:41:26;;;;;;;13.20;4.70;;;;;;;8.70;66.64;99920.34;112595;1193;22425;-63